Time;durP1;ratioP1;P1;durP2;ratioP2;P2;SDS_P1;SDS_P2;PMS_P1;PMS_P2;Temp;Humidity;BMP_temperature;BMP_pressure;BME280_temperature;BME280_humidity;BME280_pressure;Samples;Min_cycle;Max_cycle;Signal;HPM_P1;HPM_P2
2023/10/27 00:02:00;;;;;;;10.20;2.33;;;12.30;99.90;;;11.59;100.00;99195.97;4136815;28;20424;-78
2023/10/27 00:04:01;;;;;;;12.70;2.53;;;12.30;99.90;;;11.58;100.00;99195.19;4154187;28;20076;-78
2023/10/27 00:06:02;;;;;;;13.18;2.08;;;12.30;99.90;;;11.59;100.00;99185.41;4153918;28;20034;-78
2023/10/27 00:08:03;;;;;;;11.20;2.47;;;12.30;99.90;;;11.52;100.00;99179.31;4153999;28;20104;-78
2023/10/27 00:10:05;;;;;;;10.95;1.90;;;12.30;99.90;;;11.48;100.00;99172.81;4136950;28;20051;-78
2023/10/27 00:12:07;;;;;;;16.88;2.75;;;12.30;99.90;;;11.42;100.00;99161.22;4153917;28;20057;-78
2023/10/27 00:14:08;;;;;;;12.25;1.85;;;12.20;99.90;;;11.37;100.00;99165.47;4120393;28;20078;-78
2023/10/27 00:16:10;;;;;;;9.48;1.20;;;12.10;99.90;;;11.24;100.00;99158.31;4153891;28;20041;-78
2023/10/27 00:18:12;;;;;;;8.52;1.70;;;12.10;99.90;;;11.15;100.00;99156.88;4163022;28;20030;-78
2023/10/27 00:20:15;;;;;;;11.40;1.35;;;12.00;99.90;;;11.07;100.00;99159.69;4151914;28;20030;-77
2023/10/27 00:22:16;;;;;;;8.77;2.45;;;11.90;99.90;;;10.92;100.00;99137.91;4153019;28;20493;-77
2023/10/27 00:24:16;;;;;;;9.35;1.48;;;11.80;99.90;;;11.01;100.00;99152.56;4152590;28;20026;-78
2023/10/27 00:26:17;;;;;;;3.88;0.98;;;11.80;99.90;;;11.00;100.00;99157.03;4170256;28;20021;-78
2023/10/27 00:28:18;;;;;;;12.40;1.58;;;11.80;99.90;;;11.04;100.00;99147.72;4170197;28;20028;-77
2023/10/27 00:30:19;;;;;;;11.52;1.58;;;11.80;99.90;;;11.09;100.00;99153.22;4170151;28;20033;-77
2023/10/27 00:32:20;;;;;;;6.68;1.15;;;11.80;99.90;;;11.09;100.00;99153.22;4152326;28;20022;-78
2023/10/27 00:34:21;;;;;;;6.95;1.85;;;11.90;99.90;;;11.07;100.00;99154.41;4152352;28;20097;-78
2023/10/27 00:36:22;;;;;;;12.80;1.48;;;11.90;99.90;;;11.03;100.00;99159.28;4152335;28;20025;-77
2023/10/27 00:38:23;;;;;;;16.88;1.98;;;11.80;99.90;;;10.97;100.00;99159.25;4152363;28;20038;-78
2023/10/27 00:40:24;;;;;;;9.82;2.17;;;11.70;99.90;;;10.87;100.00;99156.97;4169854;28;20079;-78
2023/10/27 00:42:25;;;;;;;9.32;1.75;;;11.70;99.90;;;10.78;100.00;99152.84;4168648;28;20026;-78
2023/10/27 00:44:26;;;;;;;13.20;2.50;;;11.60;99.90;;;10.69;100.00;99147.97;4169964;28;20082;-78
2023/10/27 00:46:27;;;;;;;13.60;1.92;;;11.50;99.90;;;10.63;100.00;99146.94;4152386;28;20026;-77
2023/10/27 00:48:28;;;;;;;9.32;2.10;;;11.40;99.90;;;10.58;100.00;99154.59;4152098;28;20421;-78
2023/10/27 00:50:30;;;;;;;8.10;2.03;;;11.40;99.90;;;10.51;100.00;99151.13;4135769;28;20038;-77
2023/10/27 00:52:31;;;;;;;13.23;2.00;;;11.30;99.90;;;10.44;100.00;99151.06;4153452;28;20034;-78
2023/10/27 00:54:35;;;;;;;9.70;1.65;;;11.30;99.90;;;10.46;100.00;99156.97;4145653;28;20060;-78
2023/10/27 00:56:39;;;;;;;14.18;2.15;;;11.30;99.90;;;10.48;100.00;99160.22;4138936;28;20054;-77
2023/10/27 00:58:40;;;;;;;11.43;1.75;;;11.30;99.90;;;10.48;100.00;99154.16;4140656;28;20030;-78
2023/10/27 01:00:42;;;;;;;9.80;2.05;;;11.30;99.90;;;10.46;100.00;99153.50;4151849;28;20029;-78
2023/10/27 01:02:43;;;;;;;12.30;2.13;;;11.30;99.90;;;10.46;100.00;99151.69;4151969;28;20136;-77
2023/10/27 01:04:45;;;;;;;8.50;1.30;;;11.30;99.90;;;10.45;100.00;99146.63;4152052;28;20144;-77
2023/10/27 01:06:46;;;;;;;9.27;1.85;;;11.30;99.90;;;10.43;100.00;99146.81;4169463;28;20033;-78
2023/10/27 01:08:47;;;;;;;8.43;1.15;;;11.30;99.90;;;10.40;100.00;99143.72;4151944;28;20021;-77
2023/10/27 01:10:48;;;;;;;8.85;2.33;;;11.20;99.90;;;10.35;100.00;99151.41;4169635;28;20079;-78
2023/10/27 01:12:50;;;;;;;9.10;1.48;;;11.20;99.90;;;10.33;100.00;99156.91;4151698;28;20084;-77
2023/10/27 01:14:51;;;;;;;12.43;2.08;;;11.20;99.90;;;10.31;100.00;99161.53;4169653;28;20029;-77
2023/10/27 01:16:52;;;;;;;8.88;1.13;;;11.10;99.90;;;10.27;100.00;99147.13;4169467;28;20033;-77
2023/10/27 01:18:53;;;;;;;10.32;1.23;;;11.10;99.90;;;10.29;100.00;99147.72;4151826;28;20033;-77
2023/10/27 01:20:54;;;;;;;9.23;1.85;;;11.10;99.90;;;10.37;100.00;99152.84;4138154;28;20026;-77
2023/10/27 01:22:54;;;;;;;9.13;2.15;;;11.10;99.90;;;10.43;100.00;99151.25;4153041;28;20030;-77
2023/10/27 01:24:55;;;;;;;10.57;1.38;;;11.20;99.90;;;10.47;100.00;99150.69;4135378;28;20080;-77
2023/10/27 01:26:58;;;;;;;3.92;1.13;;;11.30;99.90;;;10.44;100.00;99140.53;4152934;28;20022;-77
2023/10/27 01:28:59;;;;;;;11.23;2.38;;;11.20;99.90;;;10.41;100.00;99145.38;4135523;28;20031;-77
2023/10/27 01:31:00;;;;;;;5.97;1.45;;;11.20;99.90;;;10.33;100.00;99143.72;4155919;28;20030;-77
2023/10/27 01:33:01;;;;;;;11.85;1.13;;;11.10;99.90;;;10.31;100.00;99150.16;4163169;28;20029;-77
2023/10/27 01:35:03;;;;;;;7.22;1.13;;;11.10;99.90;;;10.25;100.00;99135.94;4151266;28;20022;-77
2023/10/27 01:37:03;;;;;;;8.32;1.33;;;11.10;99.90;;;10.29;100.00;99149.56;4147891;28;20030;-77
2023/10/27 01:39:04;;;;;;;6.38;1.50;;;11.10;99.90;;;10.29;100.00;99150.38;4168934;28;20029;-77
2023/10/27 01:41:05;;;;;;;7.97;1.30;;;11.10;99.90;;;10.26;100.00;99142.03;4151635;28;20057;-77
2023/10/27 01:43:06;;;;;;;8.00;1.67;;;11.10;99.90;;;10.31;100.00;99161.53;4151384;28;20022;-77
2023/10/27 01:45:08;;;;;;;13.88;1.40;;;11.10;99.90;;;10.36;100.00;99147.78;4168975;28;20048;-78
2023/10/27 01:47:09;;;;;;;12.05;1.92;;;11.10;99.90;;;10.44;100.00;99152.91;4168804;28;20032;-77
2023/10/27 01:49:09;;;;;;;19.05;2.97;;;11.20;99.90;;;10.46;100.00;99148.22;4168916;28;20029;-78
2023/10/27 01:51:10;;;;;;;19.42;2.28;;;11.20;99.90;;;10.49;100.00;99151.31;4151088;28;20038;-78
2023/10/27 01:53:11;;;;;;;19.42;2.80;;;11.30;99.90;;;10.50;100.00;99152.94;4167683;28;20095;-77
2023/10/27 01:55:12;;;;;;;16.50;2.60;;;11.30;99.90;;;10.52;100.00;99155.38;4149316;28;20390;-77
2023/10/27 01:57:12;;;;;;;19.92;2.55;;;11.30;99.90;;;10.51;100.00;99153.75;4151424;28;20524;-77
2023/10/27 01:59:13;;;;;;;23.00;2.67;;;11.30;99.90;;;10.48;100.00;99147.03;4144052;28;20026;-77
2023/10/27 02:01:15;;;;;;;15.35;1.98;;;11.30;99.90;;;10.48;100.00;99148.88;4151332;28;20121;-77
2023/10/27 02:03:16;;;;;;;13.98;2.08;;;11.30;99.90;;;10.44;100.00;99152.91;4151170;28;20093;-77
2023/10/27 02:05:16;;;;;;;14.20;2.53;;;11.30;99.90;;;10.40;100.00;99146.38;4167327;28;20022;-77
2023/10/27 02:07:23;;;;;;;19.05;2.97;;;11.20;99.90;;;10.35;100.00;99135.59;4168758;28;20022;-77
2023/10/27 02:09:24;;;;;;;23.40;4.20;;;11.20;99.90;;;10.44;100.00;99139.72;4168792;28;20060;-77
2023/10/27 02:11:26;;;;;;;14.82;2.35;;;11.20;99.90;;;10.42;100.00;99144.38;4168100;28;20025;-77
2023/10/27 02:13:28;;;;;;;23.55;2.30;;;11.20;99.90;;;10.40;100.00;99143.72;4157722;28;20030;-77
2023/10/27 02:15:29;;;;;;;16.10;2.33;;;11.20;99.90;;;10.41;100.00;99140.09;4134796;28;20034;-77
2023/10/27 02:17:30;;;;;;;14.80;2.38;;;11.20;99.90;;;10.42;100.00;99144.38;4134734;28;20026;-78
2023/10/27 02:19:31;;;;;;;14.80;2.47;;;11.20;99.90;;;10.43;100.00;99152.06;4160000;28;20500;-77
2023/10/27 02:21:32;;;;;;;17.95;2.13;;;11.20;99.90;;;10.40;100.00;99149.81;4152138;28;20029;-77
2023/10/27 02:23:33;;;;;;;14.40;2.88;;;11.20;99.90;;;10.42;100.00;99149.66;4134908;28;20034;-77
2023/10/27 02:25:34;;;;;;;25.33;2.40;;;11.20;99.90;;;10.40;100.00;99149.81;4152483;28;20033;-77
2023/10/27 02:27:38;;;;;;;18.48;2.65;;;11.20;99.90;;;10.41;100.00;99156.75;4152186;28;20026;-77
2023/10/27 02:29:38;;;;;;;;;;;11.20;99.90;;;10.41;100.00;99148.81;4152721;28;20032;-77
2023/10/27 02:31:40;;;;;;;16.45;3.10;;;11.20;99.90;;;10.39;100.00;99150.03;4152287;28;19910;-76
2023/10/27 02:33:41;;;;;;;22.30;2.42;;;11.20;99.90;;;10.40;100.00;99149.00;4152296;28;20058;-77
2023/10/27 02:35:42;;;;;;;17.45;3.08;;;11.20;99.90;;;10.42;100.00;99149.66;4151857;28;20033;-77
2023/10/27 02:37:43;;;;;;;19.75;3.35;;;11.20;99.90;;;10.42;100.00;99152.28;4152244;28;20471;-77
2023/10/27 02:39:44;;;;;;;17.88;3.08;;;11.20;99.90;;;10.45;100.00;99147.41;4152159;28;20026;-76
2023/10/27 02:41:45;;;;;;;12.63;2.58;;;11.20;99.90;;;10.48;100.00;99149.66;4134609;28;20037;-76
2023/10/27 02:43:46;;;;;;;10.27;2.33;;;11.30;99.90;;;10.44;100.00;99153.72;4151992;28;20026;-76
2023/10/27 02:45:47;;;;;;;20.45;2.40;;;11.20;99.90;;;10.42;100.00;99144.38;4152236;28;20033;-77
2023/10/27 02:47:48;;;;;;;34.25;3.80;;;11.20;99.90;;;10.46;100.00;99138.50;4152002;28;20481;-78
2023/10/27 02:49:49;;;;;;;16.60;2.60;;;11.20;99.90;;;10.52;100.00;99145.63;4134599;28;20026;-77
2023/10/27 02:51:49;;;;;;;16.73;2.25;;;11.30;99.90;;;10.53;100.00;99135.91;4163806;28;20044;-77
2023/10/27 02:53:50;;;;;;;18.27;3.65;;;11.30;99.90;;;10.52;100.00;99139.53;4156095;28;20034;-77
2023/10/27 02:55:51;;;;;;;20.35;2.67;;;11.30;99.90;;;10.47;100.00;99136.69;4143696;28;20026;-77
2023/10/27 02:57:52;;;;;;;16.70;1.90;;;11.30;99.90;;;10.43;100.00;99144.16;4134789;28;20103;-77
2023/10/27 02:59:53;;;;;;;18.67;2.97;;;11.20;99.90;;;10.38;100.00;99138.66;4135768;28;20031;-77
2023/10/27 03:01:54;;;;;;;17.77;2.85;;;11.20;99.90;;;10.33;100.00;99135.00;4134662;28;20041;-76
2023/10/27 03:03:55;;;;;;;7.57;1.83;;;11.10;99.90;;;10.27;100.00;99139.22;4134569;28;20030;-76
2023/10/27 03:05:56;;;;;;;19.75;2.47;;;11.10;99.90;;;10.21;100.00;99139.16;4141915;28;20045;-77
2023/10/27 03:07:56;;;;;;;8.15;1.30;;;11.00;99.90;;;10.16;100.00;99147.63;4155412;28;20030;-77
2023/10/27 03:09:57;;;;;;;15.80;1.90;;;11.00;99.90;;;10.11;100.00;99146.56;4134299;28;20026;-77
2023/10/27 03:11:58;;;;;;;9.15;1.35;;;10.90;99.90;;;10.06;100.00;99148.97;4151797;28;20391;-77
2023/10/27 03:13:59;;;;;;;13.93;1.70;;;10.90;99.90;;;9.98;100.00;99142.81;4151921;28;20407;-77
2023/10/27 03:16:01;;;;;;;13.18;2.55;;;10.80;99.90;;;9.95;100.00;99131.84;4134498;28;20512;-77
2023/10/27 03:18:02;;;;;;;18.40;3.22;;;10.80;99.90;;;9.91;100.00;99135.88;4151732;28;20030;-77
2023/10/27 03:20:04;;;;;;;15.23;3.63;;;10.70;99.90;;;9.87;100.00;99139.88;4148434;28;20060;-77
2023/10/27 03:22:07;;;;;;;10.27;2.13;;;10.60;99.90;;;9.76;100.00;99143.03;4168103;28;20104;-76
2023/10/27 03:24:08;;;;;;;24.63;2.40;;;10.60;99.90;;;9.71;100.00;99140.16;4151028;28;20802;-76
2023/10/27 03:26:09;;;;;;;8.95;1.27;;;10.50;99.90;;;9.59;100.00;99137.22;4171021;28;20048;-77
2023/10/27 03:28:10;;;;;;;6.50;1.55;;;10.50;99.90;;;9.58;100.00;99138.22;4153636;28;20033;-77
2023/10/27 03:30:11;;;;;;;19.48;3.47;;;10.40;99.90;;;9.57;100.00;99131.31;4144616;28;20027;-77
2023/10/27 03:32:12;;;;;;;21.85;2.47;;;10.40;99.90;;;9.60;100.00;99128.31;4154677;28;20032;-77
2023/10/27 03:34:13;;;;;;;18.10;3.28;;;10.40;99.90;;;9.67;100.00;99128.38;4154581;28;20416;-77
2023/10/27 03:36:14;;;;;;;16.35;2.00;;;10.50;99.90;;;9.80;100.00;99126.66;4137059;28;20034;-77
2023/10/27 03:38:15;;;;;;;15.77;2.17;;;10.60;99.90;;;9.93;100.00;99128.59;4137091;28;20033;-76
2023/10/27 03:40:16;;;;;;;20.23;2.17;;;10.70;99.90;;;10.05;100.00;99120.97;4154573;28;20025;-77
2023/10/27 03:42:17;;;;;;;14.45;2.95;;;10.80;99.90;;;10.00;100.00;99119.72;4136905;28;20085;-77
2023/10/27 03:44:17;;;;;;;20.35;2.78;;;10.80;99.90;;;10.00;100.00;99126.84;4153329;28;20026;-77
2023/10/27 03:46:18;;;;;;;17.42;3.22;;;10.70;99.90;;;9.99;100.00;99127.81;4137161;28;20031;-77
2023/10/27 03:48:19;;;;;;;18.13;2.45;;;10.70;99.90;;;10.01;100.00;99116.09;4154371;28;20400;-78
2023/10/27 03:50:20;;;;;;;16.10;2.55;;;10.80;99.90;;;10.06;100.00;99123.44;4136698;28;20027;-77
2023/10/27 03:52:20;;;;;;;27.27;3.92;;;10.80;99.90;;;10.08;100.00;99133.75;4154496;28;20029;-77
2023/10/27 03:54:21;;;;;;;11.85;2.38;;;10.80;99.90;;;10.07;100.00;99130.31;4162698;28;20022;-78
2023/10/27 03:56:22;;;;;;;18.20;2.88;;;10.90;99.90;;;10.08;100.00;99137.22;4141533;28;20105;-77
2023/10/27 03:58:23;;;;;;;19.08;3.05;;;10.90;99.90;;;10.07;100.00;99134.75;4139160;28;20412;-77
2023/10/27 04:00:25;;;;;;;21.17;3.13;;;10.80;99.90;;;10.03;100.00;99127.25;4153124;28;20032;-77
2023/10/27 04:02:26;;;;;;;15.70;2.60;;;10.80;99.90;;;10.00;100.00;99127.63;4170494;28;20032;-77
2023/10/27 04:04:27;;;;;;;17.52;2.97;;;10.80;99.90;;;10.01;100.00;99129.25;4169299;28;20029;-77
2023/10/27 04:06:28;;;;;;;20.88;3.28;;;10.80;99.90;;;9.96;100.00;99117.69;4170214;28;20473;-77
2023/10/27 04:08:29;;;;;;;19.48;2.65;;;10.80;99.90;;;9.92;100.00;99125.13;4170560;28;20465;-77
2023/10/27 04:10:31;;;;;;;17.73;2.75;;;10.70;99.90;;;9.90;100.00;99128.97;4152956;28;20018;-77
2023/10/27 04:12:32;;;;;;;17.17;2.60;;;10.60;99.90;;;9.86;100.00;99122.44;4158858;28;20461;-77
2023/10/27 04:14:33;;;;;;;22.55;2.45;;;10.60;99.90;;;9.88;100.00;99120.47;4153908;28;20042;-77
2023/10/27 04:16:34;;;;;;;17.23;2.65;;;10.70;99.90;;;9.90;100.00;99119.25;4154029;28;20033;-77
2023/10/27 04:18:35;;;;;;;13.35;2.50;;;10.70;99.90;;;9.87;100.00;99124.91;4156489;28;20032;-77
2023/10/27 04:20:36;;;;;;;16.05;2.95;;;10.70;99.90;;;9.87;100.00;99124.91;4152692;28;20030;-77
2023/10/27 04:22:38;;;;;;;15.38;2.42;;;10.70;99.90;;;9.88;100.00;99121.28;4151240;28;20025;-77
2023/10/27 04:24:38;;;;;;;14.82;2.08;;;10.70;99.90;;;9.94;100.00;99127.59;4159493;28;20544;-77
2023/10/27 04:26:39;;;;;;;11.40;2.33;;;10.70;99.90;;;9.96;100.00;99136.94;4161638;28;20100;-77
2023/10/27 04:28:40;;;;;;;16.73;3.08;;;10.80;99.90;;;10.00;100.00;99121.56;4170224;28;20036;-77
2023/10/27 04:30:41;;;;;;;13.68;2.17;;;10.80;99.90;;;10.12;100.00;99135.03;4170091;28;20394;-77
2023/10/27 04:32:42;;;;;;;20.40;3.38;;;10.90;99.90;;;10.18;100.00;99124.56;4165963;28;20026;-77
2023/10/27 04:34:43;;;;;;;15.18;2.92;;;10.90;99.90;;;10.16;100.00;99125.72;4153692;28;20025;-78
2023/10/27 04:36:44;;;;;;;24.10;3.58;;;10.90;99.90;;;10.11;100.00;99128.94;4135439;28;20038;-77
2023/10/27 04:38:45;;;;;;;19.52;3.80;;;10.90;99.90;;;10.06;100.00;99133.16;4153706;28;20025;-78
2023/10/27 04:40:46;;;;;;;15.77;3.08;;;10.90;99.90;;;10.01;100.00;99120.53;4136256;28;20031;-77
2023/10/27 04:42:47;;;;;;;16.08;3.92;;;10.80;99.90;;;10.02;100.00;99130.91;4161332;28;20025;-77
2023/10/27 04:44:48;;;;;;;15.45;2.80;;;10.80;99.90;;;9.98;100.00;99124.38;4153679;28;20038;-77
2023/10/27 04:46:50;;;;;;;16.45;2.00;;;10.80;99.90;;;10.03;100.00;99116.69;4136124;28;20030;-77
2023/10/27 04:48:51;;;;;;;19.45;3.30;;;10.80;99.90;;;9.97;100.00;99112.19;4156808;28;20053;-77
2023/10/27 04:50:54;;;;;;;19.70;3.08;;;10.80;99.90;;;10.00;100.00;99113.66;4152123;28;20026;-77
2023/10/27 04:52:54;;;;;;;16.52;2.58;;;10.80;99.90;;;9.97;100.00;99128.00;4159690;28;20029;-77
2023/10/27 04:54:56;;;;;;;14.30;3.00;;;10.80;99.90;;;9.97;100.00;99132.47;4166240;28;20029;-76
2023/10/27 04:56:57;;;;;;;13.88;3.35;;;10.80;99.90;;;10.04;100.00;99143.88;4136064;28;20034;-77
2023/10/27 04:58:58;;;;;;;22.63;2.83;;;10.80;99.90;;;10.16;100.00;99129.19;4143105;28;20029;-77
2023/10/27 05:00:59;;;;;;;23.20;3.42;;;10.80;99.90;;;10.32;100.00;99143.91;4152257;28;20157;-78
2023/10/27 05:03:00;;;;;;;23.20;3.28;;;11.00;99.90;;;10.32;100.00;99138.63;4165302;28;20112;-78
2023/10/27 05:05:01;;;;;;;24.08;2.92;;;11.00;99.90;;;10.30;100.00;99135.38;4135831;28;20034;-77
2023/10/27 05:07:03;;;;;;;16.38;2.10;;;11.00;99.90;;;10.24;100.00;99120.34;4153140;28;20022;-77
2023/10/27 05:09:04;;;;;;;20.55;2.33;;;11.00;99.90;;;10.21;100.00;99115.44;4135735;28;20064;-77
2023/10/27 05:11:05;;;;;;;14.77;2.75;;;11.00;99.90;;;10.16;100.00;99116.00;4136007;28;20030;-77
2023/10/27 05:13:06;;;;;;;20.10;2.58;;;11.00;99.90;;;10.16;100.00;99117.84;4151943;28;20405;-77
2023/10/27 05:15:07;;;;;;;14.85;2.40;;;10.90;99.90;;;10.12;100.00;99109.50;4146972;28;20026;-77
2023/10/27 05:17:08;;;;;;;17.25;3.00;;;10.90;99.90;;;10.15;100.00;99118.84;4142108;28;20081;-77
2023/10/27 05:19:09;;;;;;;19.92;2.92;;;10.90;99.90;;;10.11;100.00;99121.03;4152920;28;20025;-77
2023/10/27 05:21:17;;;;;;;18.10;2.50;;;10.90;99.90;;;10.12;100.00;99106.84;4145558;28;20400;-77
2023/10/27 05:23:18;;;;;;;15.10;2.35;;;10.90;99.90;;;10.10;100.00;99108.03;4142896;28;20023;-76
2023/10/27 05:25:19;;;;;;;17.77;2.70;;;10.90;99.90;;;10.07;100.00;99100.50;4135375;28;20399;-78
2023/10/27 05:27:20;;;;;;;15.88;3.03;;;10.90;99.90;;;10.07;100.00;99103.16;4151700;28;20029;-77
2023/10/27 05:29:20;;;;;;;18.75;3.08;;;10.80;99.90;;;10.05;100.00;99097.25;4136802;28;20037;-77
2023/10/27 05:31:22;;;;;;;12.93;2.55;;;10.90;99.90;;;10.00;100.00;99087.31;4139002;28;20030;-77
2023/10/27 05:33:23;;;;;;;14.55;2.33;;;10.80;99.90;;;9.92;100.00;99085.63;4141808;28;20034;-77
2023/10/27 05:35:23;;;;;;;15.82;2.63;;;10.80;99.90;;;9.93;100.00;99089.91;4151457;28;20038;-77
2023/10/27 05:37:24;;;;;;;18.05;2.58;;;10.70;99.90;;;9.94;100.00;99077.56;4136047;28;20038;-77
2023/10/27 05:39:26;;;;;;;16.50;2.75;;;10.80;99.90;;;9.92;100.00;99075.09;4145091;28;20521;-77
2023/10/27 05:41:27;;;;;;;15.07;2.60;;;10.70;99.90;;;9.91;100.00;99078.75;4151033;28;20014;-77
2023/10/27 05:43:28;;;;;;;13.68;2.42;;;10.70;99.90;;;9.91;100.00;99075.31;4139308;28;20049;-77
2023/10/27 05:45:29;;;;;;;20.02;2.58;;;10.70;99.90;;;9.88;100.00;99071.25;4136393;28;20557;-77
2023/10/27 05:47:30;;;;;;;16.98;2.85;;;10.70;99.90;;;9.81;100.00;99073.00;4136518;28;20026;-77
2023/10/27 05:49:31;;;;;;;13.35;3.17;;;10.60;99.90;;;9.75;100.00;99065.03;4135197;28;20037;-77
2023/10/27 05:51:35;;;;;;;9.60;1.75;;;10.50;99.90;;;9.70;100.00;99076.16;4138366;28;20032;-77
2023/10/27 05:53:36;;;;;;;15.25;2.25;;;10.50;99.90;;;9.62;100.00;99073.66;4137703;28;20058;-77
2023/10/27 05:55:37;;;;;;;12.70;2.40;;;10.50;99.90;;;9.62;100.00;99078.91;4151469;28;20022;-77
2023/10/27 05:57:38;;;;;;;9.93;1.85;;;10.40;99.90;;;9.58;100.00;99077.69;4135241;28;20873;-77
2023/10/27 05:59:39;;;;;;;18.02;2.17;;;10.40;99.90;;;9.54;100.00;99086.94;4147679;28;20083;-76
2023/10/27 06:01:40;;;;;;;9.93;2.20;;;10.40;99.90;;;9.52;100.00;99085.53;4149934;28;20026;-76
2023/10/27 06:03:40;;;;;;;11.00;1.98;;;10.30;99.90;;;9.50;100.00;99092.81;4151433;28;20091;-76
2023/10/27 06:05:41;;;;;;;13.13;2.05;;;10.20;99.90;;;9.44;100.00;99081.19;4134733;28;20096;-77
2023/10/27 06:07:42;;;;;;;12.80;1.80;;;10.20;99.90;;;9.39;100.00;99084.41;4136268;28;20508;-77
2023/10/27 06:09:44;;;;;;;12.48;2.45;;;10.20;99.90;;;9.33;100.00;99072.00;4137820;28;20022;-77
2023/10/27 06:11:45;;;;;;;13.13;1.52;;;10.10;99.90;;;9.30;100.00;99074.19;4131586;28;20050;-77
2023/10/27 06:13:45;;;;;;;10.40;2.08;;;10.10;99.90;;;9.28;100.00;99073.56;4135040;28;20069;-77
2023/10/27 06:15:46;;;;;;;15.43;2.10;;;10.00;99.90;;;9.27;100.00;99058.78;4146880;28;20101;-77
2023/10/27 06:17:49;;;;;;;13.55;2.53;;;10.00;99.90;;;9.24;100.00;99049.44;4138677;28;20037;-77
2023/10/27 06:19:49;;;;;;;14.57;2.00;;;10.00;99.90;;;9.24;100.00;99052.06;4147028;28;20076;-77
2023/10/27 06:21:50;;;;;;;13.05;2.08;;;10.00;99.90;;;9.22;100.00;99050.63;4152326;28;20490;-76
2023/10/27 06:23:51;;;;;;;10.52;1.83;;;10.00;99.90;;;9.18;100.00;99046.75;4141447;28;20517;-77
2023/10/27 06:25:52;;;;;;;11.07;2.13;;;9.90;99.90;;;9.14;100.00;99053.41;4136043;28;20486;-77
2023/10/27 06:27:54;;;;;;;13.80;2.65;;;10.00;99.90;;;9.08;100.00;99048.91;4150967;28;20053;-77
2023/10/27 06:29:56;;;;;;;6.03;1.35;;;9.90;99.90;;;9.04;100.00;99073.94;4134841;28;20034;-77
2023/10/27 06:31:57;;;;;;;6.30;1.30;;;9.80;99.90;;;8.98;100.00;99077.31;4142474;28;20068;-76
2023/10/27 06:33:58;;;;;;;13.68;1.92;;;9.80;99.90;;;8.97;100.00;99081.75;4142359;28;20480;-76
2023/10/27 06:36:00;;;;;;;11.75;1.60;;;9.80;99.90;;;9.01;100.00;99090.09;4148685;28;20034;-77
2023/10/27 06:38:01;;;;;;;14.85;2.05;;;9.80;99.90;;;9.03;100.00;99085.44;4134829;28;20098;-77
2023/10/27 06:40:04;;;;;;;13.18;2.45;;;9.80;99.90;;;9.13;100.00;99089.41;4134733;28;20037;-76
2023/10/27 06:42:06;;;;;;;11.15;2.25;;;9.90;99.90;;;9.31;100.00;99075.81;4143020;28;20026;-76
2023/10/27 06:44:07;;;;;;;10.65;1.70;;;10.00;99.90;;;9.37;100.00;99088.22;4136033;28;20394;-77
2023/10/27 06:46:08;;;;;;;10.13;2.10;;;10.10;99.90;;;9.32;100.00;99073.00;4134646;28;20026;-76
2023/10/27 06:48:09;;;;;;;9.05;1.70;;;10.10;99.90;;;9.30;100.00;99088.16;4150835;28;20026;-76
2023/10/27 06:50:10;;;;;;;13.13;2.03;;;10.10;99.90;;;9.29;100.00;99088.31;4135577;28;20068;-76
2023/10/27 06:52:11;;;;;;;10.05;1.90;;;10.10;99.90;;;9.27;100.00;99079.81;4141310;28;20460;-76
2023/10/27 06:54:12;;;;;;;24.08;4.25;;;10.00;99.90;;;9.23;100.00;99068.03;4142794;28;20053;-75
2023/10/27 06:56:13;;;;;;;13.55;2.53;;;10.10;99.90;;;9.26;100.00;99070.28;4140658;28;20037;-76
2023/10/27 06:58:14;;;;;;;12.52;1.88;;;10.00;99.90;;;9.24;100.00;99062.59;4136773;28;20038;-75
2023/10/27 07:00:15;;;;;;;14.15;2.25;;;10.00;99.90;;;9.27;100.00;99062.22;4136825;28;20030;-76
2023/10/27 07:02:16;;;;;;;19.08;2.58;;;10.00;99.90;;;9.29;100.00;99059.38;4140836;28;20030;-76
2023/10/27 07:04:17;;;;;;;7.80;1.70;;;10.00;99.90;;;9.31;100.00;99055.59;4153877;28;20026;-75
2023/10/27 07:06:18;;;;;;;13.00;2.08;;;10.10;99.90;;;9.31;100.00;99058.22;4147091;28;20026;-76
2023/10/27 07:08:18;;;;;;;13.90;1.98;;;10.10;99.90;;;9.38;100.00;99066.16;4137955;28;20062;-76
2023/10/27 07:10:19;;;;;;;9.23;1.98;;;10.20;99.90;;;9.38;100.00;99063.53;4155071;28;20511;-77
2023/10/27 07:12:20;;;;;;;16.95;2.47;;;10.20;99.90;;;9.39;100.00;99062.53;4153751;28;20050;-76
2023/10/27 07:14:21;;;;;;;10.10;2.20;;;10.20;99.90;;;9.46;100.00;99066.03;4142534;28;20452;-77
2023/10/27 07:16:22;;;;;;;9.13;2.13;;;10.20;99.90;;;9.50;100.00;99071.75;4137614;28;20514;-76
2023/10/27 07:18:23;;;;;;;16.58;3.30;;;10.30;99.90;;;9.53;100.00;99074.78;4138156;28;20033;-76
2023/10/27 07:20:24;;;;;;;15.40;2.25;;;10.30;99.90;;;9.56;100.00;99079.66;4144485;28;20033;-76
2023/10/27 07:22:24;;;;;;;8.63;2.65;;;10.30;99.90;;;9.59;100.00;99087.19;4147698;28;20028;-76
2023/10/27 07:24:27;;;;;;;16.85;2.55;;;10.40;99.90;;;9.62;100.00;99083.34;4138135;28;20053;-76
2023/10/27 07:26:28;;;;;;;16.83;3.10;;;10.40;99.90;;;9.66;100.00;99080.16;4138628;28;20034;-76
2023/10/27 07:28:29;;;;;;;12.57;3.30;;;10.40;99.90;;;9.70;100.00;99076.16;4138884;28;20031;-77
2023/10/27 09:23:06;;;;;;;16.60;4.10;;;12.30;99.90;;;12.32;100.00;99049.63;4250151;27;20370;-76
2023/10/27 09:25:19;;;;;;;16.08;3.97;;;12.90;99.90;;;12.21;100.00;99071.44;4202814;28;20036;-76
2023/10/27 09:27:27;;;;;;;14.63;4.72;;;12.90;99.90;;;12.06;100.00;99062.94;4227338;28;20080;-76
2023/10/27 09:29:30;;;;;;;11.23;3.45;;;12.70;99.90;;;12.05;100.00;99075.31;4214747;28;20021;-76
2023/10/27 09:31:37;;;;;;;11.97;3.80;;;12.70;99.90;;;11.97;100.00;99077.38;4231767;28;20177;-76
2023/10/27 09:33:38;;;;;;;20.02;4.88;;;12.70;99.90;;;11.92;100.00;99077.16;4233063;28;20024;-76
2023/10/27 09:35:40;;;;;;;17.17;4.28;;;12.60;99.90;;;11.91;100.00;99064.97;4232851;28;20397;-76
2023/10/27 09:37:41;;;;;;;14.38;4.50;;;12.60;99.90;;;11.83;100.00;99047.50;4198087;28;20024;-76
2023/10/27 09:39:42;;;;;;;20.50;4.65;;;12.70;99.90;;;11.98;100.00;99069.22;4232883;28;20073;-76
2023/10/27 09:42:09;;;;;;;20.08;4.90;;;12.70;99.90;;;12.06;100.00;99076.13;4232755;28;20448;-76
2023/10/27 09:44:16;;;;;;;19.00;4.90;;;12.70;99.90;;;12.07;100.00;99078.56;4216862;28;20051;-76
2023/10/27 09:46:18;;;;;;;19.15;5.47;;;12.80;99.90;;;11.92;100.00;99090.38;4214829;28;20028;-76
2023/10/27 09:48:28;;;;;;;20.08;6.13;;;12.70;99.90;;;11.83;100.00;99102.97;4205311;28;20020;-76
2023/10/27 09:50:30;;;;;;;17.20;4.60;;;12.60;99.90;;;11.81;100.00;99096.28;4214983;28;20037;-77
2023/10/27 09:52:33;;;;;;;13.07;3.83;;;12.60;99.90;;;11.81;100.00;99104.19;4232499;28;20020;-76
2023/10/27 09:54:34;;;;;;;13.70;4.20;;;12.50;99.90;;;11.79;100.00;99085.09;4232671;28;20020;-76
2023/10/27 09:56:35;;;;;;;16.65;4.03;;;12.50;99.90;;;11.73;100.00;99104.41;4214399;28;20080;-76
2023/10/27 09:58:38;;;;;;;21.10;4.43;;;12.50;99.90;;;11.62;100.00;99126.91;4214357;28;20033;-77
2023/10/27 10:00:41;;;;;;;21.48;4.15;;;12.50;99.90;;;11.50;100.00;99137.25;4232536;28;20128;-76
2023/10/27 10:02:43;;;;;;;14.60;2.67;;;12.40;99.90;;;11.26;100.00;99121.97;4232744;28;20382;-75
2023/10/27 10:04:52;;;;;;;13.48;2.85;;;12.20;99.90;;;11.21;100.00;99126.22;4213776;28;20032;-76
2023/10/27 10:06:53;;;;;;;10.18;2.38;;;12.00;99.90;;;11.11;100.00;99126.59;4232339;28;20063;-76
2023/10/27 10:09:14;;;;;;;8.07;2.42;;;12.00;99.90;;;11.11;100.00;99124.78;4232222;28;20024;-76
2023/10/27 10:11:17;;;;;;;9.23;1.73;;;11.90;99.90;;;11.15;100.00;99134.94;4214667;28;20052;-76
2023/10/27 10:13:19;;;;;;;14.77;2.10;;;11.90;99.90;;;11.17;100.00;99117.09;4232305;28;20052;-76
2023/10/27 10:15:21;;;;;;;8.20;1.88;;;11.90;99.90;;;11.16;100.00;99105.72;4232205;28;20521;-76
2023/10/27 10:17:39;;;;;;;11.48;2.33;;;12.00;99.90;;;11.21;100.00;99097.19;4198541;28;20059;-76